Time;durP1;ratioP1;P1;durP2;ratioP2;P2;SDS_P1;SDS_P2;PMS_P1;PMS_P2;Temp;Humidity;BMP_temperature;BMP_pressure;BME280_temperature;BME280_humidity;BME280_pressure;Samples;Min_cycle;Max_cycle;Signal;HPM_P1;HPM_P2
2023/12/18 00:02:18;;;;;;;8.32;4.80;;;;;;;6.76;52.56;102970.72;4923238;29;20723;-84
2023/12/18 00:04:46;;;;;;;5.97;4.30;;;;;;;6.75;52.39;102968.94;4928891;29;20075;-86
2023/12/18 00:07:14;;;;;;;7.68;4.28;;;;;;;6.74;52.62;102973.50;4919044;29;20525;-86
2023/12/18 00:09:42;;;;;;;7.07;4.30;;;;;;;6.73;52.40;102977.13;4916546;29;20123;-86
2023/12/18 00:12:11;;;;;;;6.53;4.32;;;;;;;6.71;52.40;102964.53;4912500;29;20044;-86
2023/12/18 00:14:40;;;;;;;7.50;4.30;;;;;;;6.69;52.65;102972.78;4921237;29;20039;-86
2023/12/18 00:17:09;;;;;;;5.95;4.15;;;;;;;6.66;52.20;102958.38;4917196;29;20044;-85
2023/12/18 00:19:37;;;;;;;6.45;4.28;;;;;;;6.63;52.35;102967.53;4906356;29;20044;-85
2023/12/18 00:22:05;;;;;;;5.72;4.10;;;;;;;6.62;52.63;102953.97;4921900;29;20051;-85
2023/12/18 00:24:33;;;;;;;6.07;4.07;;;;;;;6.62;52.64;102971.19;4900355;29;20414;-86
2023/12/18 00:27:02;;;;;;;7.18;4.28;;;;;;;6.61;52.37;102968.56;4907873;29;20051;-85
2023/12/18 00:29:33;;;;;;;6.35;4.15;;;;;;;6.59;52.33;102973.16;4929857;29;20040;-85
2023/12/18 00:32:01;;;;;;;6.03;3.92;;;;;;;6.58;52.39;102968.66;4920345;29;20518;-85
2023/12/18 00:34:31;;;;;;;6.63;3.95;;;;;;;6.58;52.26;102971.38;4916065;29;20054;-85
2023/12/18 00:36:59;;;;;;;6.03;4.03;;;;;;;6.53;52.42;102952.50;4917481;29;20051;-86
2023/12/18 00:39:30;;;;;;;6.38;3.78;;;;;;;6.54;52.20;102957.00;4913569;29;20044;-85
2023/12/18 00:42:00;;;;;;;6.63;4.05;;;;;;;6.52;52.43;102950.75;4918880;29;20092;-85
2023/12/18 00:44:31;;;;;;;6.57;3.95;;;;;;;6.48;52.23;102949.06;4913313;29;20733;-87
2023/12/18 00:47:03;;;;;;;5.30;3.60;;;;;;;6.50;52.12;102949.91;4927788;29;20422;-84
2023/12/18 00:49:37;;;;;;;6.93;4.13;;;;;;;6.48;51.89;102935.47;4947850;29;20052;-86
2023/12/18 00:52:06;;;;;;;4.90;3.85;;;;;;;6.47;52.11;102933.69;4923023;29;20292;-85
2023/12/18 00:54:34;;;;;;;6.22;4.32;;;;;;;6.46;51.94;102931.91;4917094;29;20103;-85
2023/12/18 00:57:03;;;;;;;5.97;3.80;;;;;;;6.45;51.69;102941.00;4911286;29;20459;-84
2023/12/18 00:59:31;;;;;;;5.28;4.00;;;;;;;6.41;52.04;102942.97;4916374;29;20040;-85
2023/12/18 01:02:00;;;;;;;5.78;3.78;;;;;;;6.40;51.61;102943.91;4913007;29;20580;-85
2023/12/18 01:04:28;;;;;;;6.40;4.35;;;;;;;6.38;51.95;102942.19;4916119;29;20076;-85
2023/12/18 01:06:57;;;;;;;6.30;4.03;;;;;;;6.35;51.78;102951.38;4916417;29;20052;-85
2023/12/18 01:09:26;;;;;;;7.90;4.20;;;;;;;6.33;51.48;102950.53;4909369;29;20048;-85
2023/12/18 01:11:54;;;;;;;7.47;4.13;;;;;;;6.30;51.55;102944.31;4913730;29;20048;-85
2023/12/18 01:14:22;;;;;;;6.75;3.85;;;;;;;6.26;51.71;102945.38;4912697;29;20044;-85
2023/12/18 01:16:52;;;;;;;6.82;4.07;;;;;;;6.25;51.77;102939.03;4923168;29;20422;-85
2023/12/18 01:19:21;;;;;;;6.43;4.38;;;;;;;6.21;51.65;102934.66;4919522;29;20044;-85
2023/12/18 01:21:51;;;;;;;7.15;4.35;;;;;;;6.22;51.77;102943.69;4907604;29;20050;-85
2023/12/18 01:24:21;;;;;;;6.28;4.30;;;;;;;6.21;51.80;102942.81;4908721;29;20048;-85
2023/12/18 01:26:49;;;;;;;6.38;4.60;;;;;;;6.16;51.70;102936.66;4908755;29;20063;-85
2023/12/18 01:29:18;;;;;;;7.57;4.80;;;;;;;6.16;51.69;102938.50;4915467;29;20375;-85
2023/12/18 01:31:46;;;;;;;7.20;4.40;;;;;;;6.14;51.64;102949.41;4906452;29;20081;-85
2023/12/18 01:34:18;;;;;;;6.30;4.05;;;;;;;6.12;51.77;102947.72;4929306;29;20051;-85
2023/12/18 01:36:47;;;;;;;7.30;4.90;;;;;;;6.11;51.40;102959.53;4908521;29;20044;-86
2023/12/18 01:39:15;;;;;;;10.98;5.90;;;;;;;6.10;51.74;102958.63;4916652;29;20055;-85
2023/12/18 01:41:44;;;;;;;13.05;7.00;;;;;;;6.09;51.76;102950.53;4910665;29;20055;-85
2023/12/18 01:44:12;;;;;;;15.35;8.23;;;;;;;6.07;51.46;102947.84;4921733;29;20052;-86
2023/12/18 01:46:41;;;;;;;15.35;8.90;;;;;;;6.07;51.35;102945.16;4916992;29;20040;-86
2023/12/18 01:49:10;;;;;;;14.80;8.57;;;;;;;6.07;51.50;102948.75;4930307;29;20040;-86
2023/12/18 01:51:42;;;;;;;14.27;8.43;;;;;;;6.06;51.24;102955.13;4922095;29;20290;-85
2023/12/18 01:54:12;;;;;;;12.13;6.93;;;;;;;6.05;51.27;102960.63;4932989;29;20052;-85
2023/12/18 01:56:41;;;;;;;9.48;6.03;;;;;;;6.03;51.35;102960.69;4916235;29;20482;-85
2023/12/18 01:59:13;;;;;;;8.45;5.82;;;;;;;6.03;51.00;102960.69;4933008;29;20050;-85
2023/12/18 02:01:43;;;;;;;9.50;5.90;;;;;;;6.01;51.21;102967.13;4930055;29;20409;-86
2023/12/18 02:04:11;;;;;;;8.45;5.50;;;;;;;5.98;51.45;102956.34;4912846;29;20047;-85
2023/12/18 02:06:43;;;;;;;8.90;5.55;;;;;;;5.97;51.40;102955.44;4917536;29;20071;-86
2023/12/18 02:09:12;;;;;;;8.55;5.05;;;;;;;5.96;50.86;102948.22;4909951;29;20054;-86
2023/12/18 02:11:43;;;;;;;8.57;5.28;;;;;;;5.95;51.03;102951.88;4925835;29;20303;-84
2023/12/18 02:14:13;;;;;;;7.95;5.30;;;;;;;5.92;51.10;102952.00;4918321;29;20134;-85
2023/12/18 02:16:41;;;;;;;7.40;4.60;;;;;;;5.89;51.12;102954.81;4913725;29;20106;-85
2023/12/18 02:19:22;;;;;;;6.70;4.70;;;;;;;5.89;50.59;102953.94;4923240;29;20067;-84
2023/12/18 02:21:56;;;;;;;9.07;5.05;;;;;;;5.84;51.03;102955.94;4910021;29;20507;-85
2023/12/18 02:24:26;;;;;;;7.75;4.78;;;;;;;5.85;50.94;102966.75;4911108;29;20554;-85
2023/12/18 02:26:55;;;;;;;8.18;4.90;;;;;;;5.80;50.86;102967.84;4930496;29;20561;-85
2023/12/18 02:29:23;;;;;;;7.15;4.60;;;;;;;5.81;50.85;102966.91;4914759;29;20143;-84
2023/12/18 02:31:51;;;;;;;7.78;4.30;;;;;;;5.80;50.98;102965.13;4915145;29;20079;-84
2023/12/18 02:34:19;;;;;;;7.35;4.18;;;;;;;5.77;50.53;102965.25;4908157;29;20414;-84
2023/12/18 02:36:49;;;;;;;7.35;4.25;;;;;;;5.77;50.78;102959.81;4921198;29;20631;-84
2023/12/18 02:39:17;;;;;;;7.88;4.80;;;;;;;5.75;50.61;102951.72;4926750;29;20044;-84
2023/12/18 02:41:47;;;;;;;6.55;4.28;;;;;;;5.77;50.72;102948.94;4919678;29;20533;-85
2023/12/18 02:44:15;;;;;;;7.63;4.85;;;;;;;5.72;50.94;102953.63;4919701;28;20057;-84
2023/12/18 02:46:44;;;;;;;6.72;4.80;;;;;;;5.73;51.02;102959.00;4911573;29;20083;-84
2023/12/18 02:49:16;;;;;;;6.65;4.07;;;;;;;5.71;50.43;102960.03;4910914;29;20494;-84
2023/12/18 02:51:44;;;;;;;8.23;4.70;;;;;;;5.69;50.57;102962.78;4914324;29;20493;-84
2023/12/18 02:54:12;;;;;;;8.25;4.53;;;;;;;5.68;50.62;102970.06;4919712;29;20360;-85
2023/12/18 02:56:40;;;;;;;6.78;4.50;;;;;;;5.66;50.38;102965.59;4924396;29;20078;-85
2023/12/18 02:59:09;;;;;;;7.13;4.38;;;;;;;5.66;50.41;102961.06;4920214;29;20048;-84
2023/12/18 03:01:38;;;;;;;7.20;4.00;;;;;;;5.64;50.58;102959.31;4911441;29;20532;-84
2023/12/18 03:04:06;;;;;;;7.10;4.32;;;;;;;5.64;50.37;102959.31;4922918;29;20076;-85
2023/12/18 03:06:34;;;;;;;7.35;4.75;;;;;;;5.63;50.37;102965.69;4917392;29;20465;-84
2023/12/18 03:09:05;;;;;;;7.15;4.20;;;;;;;5.60;50.69;102955.84;4914605;29;20043;-85
2023/12/18 03:11:39;;;;;;;6.38;4.40;;;;;;;5.59;50.27;102945.91;4920500;29;20048;-84
2023/12/18 03:14:08;;;;;;;6.28;4.60;;;;;;;5.58;50.38;102945.94;4935825;29;20050;-84
2023/12/18 03:16:38;;;;;;;6.90;4.15;;;;;;;5.58;50.33;102946.84;4905342;29;20040;-85
2023/12/18 03:19:10;;;;;;;6.32;4.15;;;;;;;5.57;49.79;102942.34;4912412;29;20040;-84
2023/12/18 03:21:38;;;;;;;6.78;4.20;;;;;;;5.52;50.01;102946.16;4924783;29;20043;-84
2023/12/18 03:24:07;;;;;;;6.97;4.30;;;;;;;5.53;50.25;102948.84;4916899;29;20142;-84
2023/12/18 03:26:36;;;;;;;7.15;4.38;;;;;;;5.52;50.15;102943.44;4911503;29;20063;-85
2023/12/18 03:29:05;;;;;;;7.60;5.00;;;;;;;5.50;50.39;102938.06;4920606;29;20113;-84
2023/12/18 03:31:33;;;;;;;6.70;4.65;;;;;;;5.48;50.42;102931.78;4924892;29;20119;-86
2023/12/18 03:34:03;;;;;;;6.43;4.25;;;;;;;5.49;50.25;102927.25;4908493;29;20047;-85
2023/12/18 03:36:31;;;;;;;6.20;4.07;;;;;;;5.48;50.35;102930.91;4918996;29;20417;-84
2023/12/18 03:38:59;;;;;;;7.32;4.53;;;;;;;5.43;50.10;102927.47;4919200;29;20044;-85
2023/12/18 03:41:27;;;;;;;6.32;4.32;;;;;;;5.44;50.44;102931.97;4924101;29;20139;-84
2023/12/18 03:43:55;;;;;;;6.78;4.50;;;;;;;5.41;50.00;102915.75;4936470;29;20084;-85
2023/12/18 03:46:24;;;;;;;6.47;4.10;;;;;;;5.39;49.93;102921.22;4930775;29;20690;-85
2023/12/18 03:48:52;;;;;;;5.43;4.18;;;;;;;5.37;49.86;102914.97;4915741;29;20505;-84
2023/12/18 03:51:22;;;;;;;7.75;4.13;;;;;;;5.33;50.12;102910.56;4924978;29;20070;-84
2023/12/18 03:53:50;;;;;;;7.97;4.28;;;;;;;5.33;49.92;102917.84;4920638;29;20043;-84
2023/12/18 03:56:18;;;;;;;5.97;3.95;;;;;;;5.29;50.21;102904.34;4918978;29;20054;-84
2023/12/18 03:58:46;;;;;;;5.60;3.75;;;;;;;5.28;50.28;102904.44;4923226;29;20115;-85
2023/12/18 04:01:14;;;;;;;5.95;3.75;;;;;;;5.27;49.86;102895.38;4923947;29;20051;-85
2023/12/18 04:03:43;;;;;;;6.68;4.20;;;;;;;5.24;50.09;102902.72;4906494;29;20036;-84
2023/12/18 04:06:11;;;;;;;6.03;4.07;;;;;;;5.25;49.94;102899.97;4911147;29;20051;-84
2023/12/18 04:08:44;;;;;;;6.78;4.55;;;;;;;5.22;50.23;102901.88;4937175;28;20039;-84
2023/12/18 04:11:15;;;;;;;6.07;4.00;;;;;;;5.19;49.74;102904.72;4915520;29;20052;-86
2023/12/18 04:13:42;;;;;;;7.40;4.20;;;;;;;5.15;49.95;102900.28;4929790;29;20067;-84
2023/12/18 04:16:17;;;;;;;5.57;3.90;;;;;;;5.13;49.92;102897.59;4932587;29;20043;-84
2023/12/18 04:19:29;;;;;;;6.30;3.72;;;;;;;5.09;50.18;102900.50;4897870;29;20051;-83
2023/12/18 04:21:57;;;;;;;6.00;3.78;;;;;;;5.08;49.96;102896.00;4915965;29;20047;-85
2023/12/18 04:24:28;;;;;;;5.57;3.85;;;;;;;5.12;49.92;102904.00;4945867;29;20044;-84
2023/12/18 04:26:58;;;;;;;5.97;3.88;;;;;;;5.09;50.43;102886.91;4930255;29;20463;-85
2023/12/18 04:29:27;;;;;;;6.40;3.95;;;;;;;5.09;50.05;102893.22;4923470;29;20111;-84
2023/12/18 04:31:55;;;;;;;5.70;4.07;;;;;;;5.10;50.29;102899.56;4933627;29;20047;-84
2023/12/18 04:34:23;;;;;;;6.55;3.92;;;;;;;5.10;50.26;102902.28;4935712;29;20044;-84
2023/12/18 04:36:51;;;;;;;6.72;4.03;;;;;;;5.08;49.92;102898.72;4910012;29;20048;-84
2023/12/18 04:39:19;;;;;;;7.32;4.13;;;;;;;5.07;50.21;102908.66;4905785;29;20507;-84
2023/12/18 04:41:49;;;;;;;5.55;3.88;;;;;;;5.10;50.11;102904.97;4909985;29;20131;-85
2023/12/18 04:44:17;;;;;;;7.38;4.20;;;;;;;5.07;49.97;102905.06;4924718;29;20106;-84
2023/12/18 04:46:46;;;;;;;5.82;3.85;;;;;;;5.05;49.93;102905.09;4926233;29;20107;-85
2023/12/18 04:49:15;;;;;;;6.07;3.95;;;;;;;5.07;49.97;102903.25;4922704;29;20103;-84
2023/12/18 04:51:43;;;;;;;6.15;3.80;;;;;;;5.05;50.40;102901.50;4925432;29;20083;-85
2023/12/18 04:54:11;;;;;;;5.82;4.03;;;;;;;5.04;49.87;102897.94;4911003;29;20521;-85
2023/12/18 04:56:39;;;;;;;6.35;4.05;;;;;;;5.04;49.71;102899.75;4933240;29;20047;-85
2023/12/18 04:59:10;;;;;;;6.78;3.97;;;;;;;5.02;49.82;102907.94;4925488;29;20103;-84
2023/12/18 05:01:38;;;;;;;5.57;3.80;;;;;;;5.01;49.92;102918.84;4916126;29;20471;-85
2023/12/18 05:04:06;;;;;;;7.47;3.95;;;;;;;5.02;49.89;102916.09;4921568;29;20062;-86
2023/12/18 05:06:41;;;;;;;5.97;3.92;;;;;;;5.04;49.72;102919.66;4931060;29;20046;-86
2023/12/18 05:09:09;;;;;;;6.40;4.00;;;;;;;5.02;49.93;102923.34;4912302;29;20040;-85
2023/12/18 05:11:37;;;;;;;7.63;3.75;;;;;;;5.02;49.75;102923.34;4910891;29;20379;-86
2023/12/18 05:14:05;;;;;;;5.78;4.15;;;;;;;5.01;50.03;102921.56;4917135;29;20044;-85
2023/12/18 05:16:34;;;;;;;6.40;4.10;;;;;;;5.00;49.59;102919.78;4934571;29;20360;-85
2023/12/18 05:19:03;;;;;;;7.25;4.15;;;;;;;4.99;49.89;102918.00;4911009;29;20056;-85
2023/12/18 05:21:31;;;;;;;6.50;4.25;;;;;;;4.98;50.00;102911.69;4914904;29;20071;-86
2023/12/18 05:23:59;;;;;;;7.38;4.35;;;;;;;4.97;49.38;102911.72;4918259;29;20048;-85
2023/12/18 05:26:27;;;;;;;5.82;3.97;;;;;;;4.95;49.57;102910.91;4929607;29;20127;-85
2023/12/18 05:28:54;;;;;;;7.07;4.50;;;;;;;4.96;49.86;102918.13;4914781;29;20043;-85
2023/12/18 05:31:23;;;;;;;6.80;4.07;;;;;;;4.95;49.61;102914.50;4932335;29;20079;-85
2023/12/18 05:33:52;;;;;;;6.05;4.20;;;;;;;4.92;49.94;102917.31;4938137;29;20482;-86
2023/12/18 05:36:20;;;;;;;7.38;4.50;;;;;;;4.91;49.67;102910.97;4924039;29;20048;-86
2023/12/18 05:38:48;;;;;;;6.03;4.45;;;;;;;4.90;49.86;102909.22;4917332;29;20356;-85
2023/12/18 05:41:16;;;;;;;5.93;3.95;;;;;;;4.89;49.73;102909.25;4918087;29;20043;-85
2023/12/18 05:43:44;;;;;;;7.55;4.60;;;;;;;4.87;49.75;102912.03;4925579;28;20040;-85
2023/12/18 05:46:14;;;;;;;6.57;4.03;;;;;;;4.88;49.53;102910.22;4919916;29;20043;-86
2023/12/18 05:48:42;;;;;;;6.43;3.97;;;;;;;4.86;49.59;102906.66;4916451;29;20052;-86
2023/12/18 05:51:20;;;;;;;6.32;4.30;;;;;;;4.87;49.09;102925.59;4915209;29;20479;-85
2023/12/18 05:53:49;;;;;;;7.47;4.20;;;;;;;4.84;49.43;102919.38;4918127;29;20564;-85
2023/12/18 05:56:17;;;;;;;6.82;4.57;;;;;;;4.82;49.63;102918.50;4913335;29;20075;-86
2023/12/18 05:58:45;;;;;;;8.02;4.57;;;;;;;4.82;49.63;102913.09;4923288;29;20051;-85
2023/12/18 06:01:13;;;;;;;7.78;4.53;;;;;;;4.81;49.63;102914.03;4926928;29;20055;-84
2023/12/18 06:03:41;;;;;;;7.18;4.53;;;;;;;4.80;49.80;102917.69;4923501;29;20043;-87
2023/12/18 06:06:10;;;;;;;7.38;4.35;;;;;;;4.79;49.69;102914.09;4927379;29;20073;-84
2023/12/18 06:08:39;;;;;;;6.80;4.50;;;;;;;4.80;49.65;102926.69;4953968;29;20141;-84
2023/12/18 06:11:07;;;;;;;8.07;4.57;;;;;;;4.78;49.41;102917.75;4946365;29;20103;-84
2023/12/18 06:13:35;;;;;;;8.02;5.07;;;;;;;4.78;49.56;102923.16;4937951;29;20111;-84
2023/12/18 06:16:03;;;;;;;8.52;5.15;;;;;;;4.77;49.59;102918.66;4944109;29;20154;-84
2023/12/18 06:18:34;;;;;;;6.97;4.63;;;;;;;4.77;49.70;102913.25;4938295;29;20055;-84
2023/12/18 06:21:03;;;;;;;6.78;4.63;;;;;;;4.77;49.40;102909.66;4942697;29;20050;-84
2023/12/18 06:23:32;;;;;;;8.63;5.03;;;;;;;4.75;49.90;102915.13;4954707;29;20075;-84
2023/12/18 06:26:02;;;;;;;7.35;4.75;;;;;;;4.77;49.57;102920.50;4933023;29;20054;-83
2023/12/18 06:28:30;;;;;;;8.88;4.45;;;;;;;4.75;49.48;102912.41;4917057;29;20052;-85
2023/12/18 06:30:58;;;;;;;8.35;4.97;;;;;;;4.74;49.34;102917.88;4942267;29;20092;-85
2023/12/18 06:33:27;;;;;;;7.90;4.90;;;;;;;4.70;49.23;102908.94;4927143;29;20091;-85
2023/12/18 06:35:55;;;;;;;6.95;4.72;;;;;;;4.70;49.40;102922.50;4929675;29;20055;-85
2023/12/18 06:38:23;;;;;;;8.40;5.35;;;;;;;4.66;49.27;102918.09;4917851;29;20074;-85
2023/12/18 06:40:51;;;;;;;6.95;4.65;;;;;;;4.65;49.28;102919.03;4915648;29;20051;-85
2023/12/18 06:43:21;;;;;;;6.85;4.63;;;;;;;4.65;49.48;102913.59;4911128;29;20040;-85
2023/12/18 06:45:48;;;;;;;7.15;4.50;;;;;;;4.62;49.59;102921.84;4913716;29;20059;-85
2023/12/18 06:48:17;;;;;;;7.68;4.80;;;;;;;4.62;49.48;102923.69;4933381;29;20051;-85
2023/12/18 06:50:45;;;;;;;8.43;4.70;;;;;;;4.59;49.61;102930.06;4910498;29;20410;-85
2023/12/18 06:53:13;;;;;;;7.45;4.65;;;;;;;4.62;49.64;102937.25;4905021;29;20048;-84
2023/12/18 06:55:45;;;;;;;8.15;4.72;;;;;;;4.57;49.61;102929.22;4914763;29;20044;-83
2023/12/18 06:58:13;;;;;;;8.13;4.65;;;;;;;4.59;49.71;102932.78;4919127;29;20055;-83
2023/12/18 07:00:43;;;;;;;9.75;5.40;;;;;;;4.57;49.32;102931.94;4929345;29;20458;-84
2023/12/18 07:03:11;;;;;;;7.43;4.85;;;;;;;4.60;49.68;102936.38;4909127;29;20400;-82
2023/12/18 07:05:39;;;;;;;8.07;5.68;;;;;;;4.59;49.83;102940.91;4915105;29;20130;-84
2023/12/18 07:08:07;;;;;;;7.20;4.68;;;;;;;4.59;49.59;102938.22;4924781;29;20387;-85
2023/12/18 07:10:35;;;;;;;7.30;4.88;;;;;;;4.57;49.67;102937.34;4914956;29;20402;-84
2023/12/18 07:13:04;;;;;;;7.10;5.05;;;;;;;4.58;49.54;102941.84;4925782;29;20257;-83
2023/12/18 07:15:32;;;;;;;8.30;5.30;;;;;;;4.58;49.54;102941.84;4913330;29;20044;-83
2023/12/18 07:18:03;;;;;;;9.60;5.93;;;;;;;4.58;49.74;102936.41;4930226;29;20048;-85
2023/12/18 07:20:31;;;;;;;7.22;5.18;;;;;;;4.57;49.76;102944.59;4911966;29;20051;-84
2023/12/18 07:23:00;;;;;;;8.70;5.63;;;;;;;4.58;49.92;102951.81;4909657;29;20091;-84
2023/12/18 07:25:28;;;;;;;8.70;5.68;;;;;;;4.57;49.87;102947.31;4916150;29;20059;-86
2023/12/18 07:27:56;;;;;;;8.75;5.50;;;;;;;4.58;49.83;102965.38;4926475;29;20055;-85
2023/12/18 07:30:24;;;;;;;8.80;5.85;;;;;;;4.57;50.19;102964.47;4903440;29;20047;-85
2023/12/18 07:32:54;;;;;;;9.77;5.70;;;;;;;4.58;50.30;102965.38;4907140;29;20072;-85
2023/12/18 07:35:23;;;;;;;10.43;5.70;;;;;;;4.58;50.15;102971.69;4912474;29;20100;-86
2023/12/18 07:37:51;;;;;;;8.52;5.70;;;;;;;4.58;50.31;102973.50;4910172;29;20055;-85
2023/12/18 07:40:19;;;;;;;9.20;5.55;;;;;;;4.60;50.26;102971.63;4926774;28;20079;-85
2023/12/18 07:42:47;;;;;;;8.30;5.53;;;;;;;4.59;50.25;102970.75;4902741;29;20041;-86
2023/12/18 07:45:16;;;;;;;7.65;5.13;;;;;;;4.62;50.27;102976.09;4923916;29;20055;-86
2023/12/18 07:47:44;;;;;;;9.65;5.53;;;;;;;4.63;50.57;102985.13;4910513;29;20044;-84
2023/12/18 07:50:12;;;;;;;9.68;5.55;;;;;;;4.64;50.40;102979.63;4921273;29;20051;-86
2023/12/18 07:52:43;;;;;;;8.55;5.35;;;;;;;4.66;50.45;102979.59;4921996;28;20081;-87
2023/12/18 07:55:12;;;;;;;8.82;5.97;;;;;;;4.65;50.72;102978.69;4904210;29;20044;-85
2023/12/18 07:57:42;;;;;;;10.95;6.55;;;;;;;4.65;50.61;102966.97;4918476;29;20405;-86
2023/12/18 08:00:13;;;;;;;12.23;7.55;;;;;;;4.67;50.50;102968.69;4913725;29;20041;-85
2023/12/18 08:02:42;;;;;;;12.55;7.65;;;;;;;4.66;50.69;102964.22;4922762;29;20099;-85
2023/12/18 08:05:11;;;;;;;12.45;7.25;;;;;;;4.70;50.70;102963.19;4905712;29;20056;-87
2023/12/18 08:07:40;;;;;;;10.20;7.03;;;;;;;4.72;50.40;102964.03;4922098;29;20047;-85
2023/12/18 08:10:11;;;;;;;12.23;7.65;;;;;;;4.75;50.54;102954.91;4925315;29;20064;-87
2023/12/18 08:12:40;;;;;;;12.18;7.82;;;;;;;4.69;50.59;102944.25;4926933;29;20051;-86
2023/12/18 08:15:09;;;;;;;12.25;7.85;;;;;;;4.73;50.90;102956.78;4922995;29;20605;-86
2023/12/18 08:17:40;;;;;;;13.27;8.07;;;;;;;4.77;50.73;102955.75;4908448;29;20040;-86
2023/12/18 08:20:09;;;;;;;12.80;8.18;;;;;;;4.73;50.49;102952.22;4919844;29;20043;-85
2023/12/18 08:22:37;;;;;;;12.43;8.30;;;;;;;4.75;50.70;102958.50;4923531;29;20046;-84
2023/12/18 08:25:07;;;;;;;13.18;8.32;;;;;;;4.77;50.73;102964.78;4920531;29;20111;-85
2023/12/18 08:27:37;;;;;;;13.57;8.48;;;;;;;4.78;50.64;102965.69;4919329;29;20048;-85
2023/12/18 08:30:06;;;;;;;14.52;8.48;;;;;;;4.79;50.80;102962.03;4920192;29;20071;-84
2023/12/18 08:32:34;;;;;;;14.98;8.60;;;;;;;4.83;51.25;102961.88;4943281;29;20107;-84
2023/12/18 08:35:05;;;;;;;12.98;7.90;;;;;;;4.84;51.08;102951.94;4934044;29;20064;-83
2023/12/18 08:37:33;;;;;;;12.27;7.88;;;;;;;4.85;51.12;102951.00;4942113;29;20075;-86
2023/12/18 08:40:02;;;;;;;12.70;8.00;;;;;;;4.86;51.03;102950.06;4931726;29;20048;-85
2023/12/18 08:42:30;;;;;;;13.43;8.40;;;;;;;4.87;51.00;102941.88;4939565;29;20039;-84
2023/12/18 08:45:00;;;;;;;12.40;8.15;;;;;;;4.88;51.29;102940.06;4944808;29;20047;-86
2023/12/18 08:47:28;;;;;;;15.07;8.90;;;;;;;4.91;51.13;102943.53;4932090;29;20048;-84
2023/12/18 08:49:56;;;;;;;15.55;8.57;;;;;;;4.90;51.01;102943.59;4937825;29;20047;-84
2023/12/18 08:52:24;;;;;;;13.15;8.18;;;;;;;4.91;51.11;102939.94;4932463;29;20059;-87
2023/12/18 08:54:54;;;;;;;14.38;8.93;;;;;;;4.90;51.35;102930.91;4945367;29;20048;-88
2023/12/18 08:57:22;;;;;;;12.23;8.15;;;;;;;4.92;51.25;102933.59;4925528;29;20044;-85
2023/12/18 08:59:51;;;;;;;12.63;8.27;;;;;;;4.97;51.17;102933.44;4927600;29;20558;-85
2023/12/18 09:02:21;;;;;;;12.25;8.10;;;;;;;4.98;51.39;102927.06;4918174;29;20040;-87
2023/12/18 09:04:51;;;;;;;12.73;8.00;;;;;;;4.97;51.19;102914.44;4927107;29;20054;-87
2023/12/18 09:07:19;;;;;;;12.52;7.45;;;;;;;4.96;51.41;102921.72;4925743;29;20059;-87
2023/12/18 09:09:47;;;;;;;12.60;7.57;;;;;;;4.98;51.31;102918.94;4930903;29;20048;-84
2023/12/18 09:12:16;;;;;;;12.90;7.40;;;;;;;5.03;51.43;102923.28;4929246;29;20048;-85
2023/12/18 09:14:44;;;;;;;13.40;7.82;;;;;;;5.01;51.40;102907.97;4924366;29;20534;-86
2023/12/18 09:17:12;;;;;;;14.27;8.40;;;;;;;5.07;51.30;102915.91;4921388;29;20040;-86
2023/12/18 09:19:44;;;;;;;12.82;8.43;;;;;;;5.06;51.11;102925.00;4921453;29;20077;-85
2023/12/18 09:22:12;;;;;;;12.75;7.78;;;;;;;5.05;51.24;102917.78;4921447;29;20087;-85
2023/12/18 09:24:42;;;;;;;14.70;8.43;;;;;;;5.08;51.36;102915.00;4914271;29;20044;-85
2023/12/18 09:27:10;;;;;;;12.02;8.57;;;;;;;5.10;51.29;102907.69;4920512;29;20095;-84
2023/12/18 09:29:38;;;;;;;12.88;7.90;;;;;;;5.11;51.19;102904.06;4921291;29;20131;-85
2023/12/18 09:32:07;;;;;;;12.18;7.88;;;;;;;5.10;51.41;102903.16;4920653;29;20127;-87
2023/12/18 09:34:37;;;;;;;10.18;7.10;;;;;;;5.12;51.27;102909.44;4916791;29;20068;-86
2023/12/18 09:37:07;;;;;;;12.00;7.10;;;;;;;5.13;51.10;102894.03;4902530;29;20052;-86
2023/12/18 09:39:44;;;;;;;13.68;7.43;;;;;;;5.13;51.40;102892.19;4904982;29;20043;-84
2023/12/18 09:42:17;;;;;;;13.05;7.72;;;;;;;5.16;51.47;102885.78;4920538;29;20072;-85
2023/12/18 09:44:51;;;;;;;12.25;7.97;;;;;;;5.15;51.51;102890.31;4931569;29;20071;-86
2023/12/18 09:47:20;;;;;;;11.95;7.85;;;;;;;5.15;51.36;102881.28;4919058;29;20047;-86
2023/12/18 09:49:49;;;;;;;13.48;8.18;;;;;;;5.17;51.64;102885.75;4916695;29;20062;-85
2023/12/18 09:52:23;;;;;;;13.30;8.30;;;;;;;5.19;51.29;102886.59;4924812;29;20056;-85
2023/12/18 09:54:53;;;;;;;12.52;8.32;;;;;;;5.17;51.48;102877.63;4916505;29;20127;-85
2023/12/18 09:57:22;;;;;;;13.18;8.23;;;;;;;5.21;51.46;102892.00;4919498;29;20072;-83
2023/12/18 09:59:51;;;;;;;13.00;8.10;;;;;;;5.20;51.52;102888.41;4923309;29;20055;-85
2023/12/18 10:02:20;;;;;;;12.98;8.50;;;;;;;5.19;51.44;102878.47;4925859;29;20032;-86
2023/12/18 10:04:49;;;;;;;11.70;8.02;;;;;;;5.22;51.59;102886.50;4927586;29;20078;-84
2023/12/18 10:07:19;;;;;;;11.93;7.47;;;;;;;5.24;51.24;102886.44;4922293;29;20043;-84
2023/12/18 10:09:50;;;;;;;14.43;8.35;;;;;;;5.23;51.58;102869.25;4924824;29;20151;-84
2023/12/18 10:12:18;;;;;;;11.15;7.97;;;;;;;5.22;51.58;102880.16;4926603;29;20048;-84
2023/12/18 10:14:53;;;;;;;14.68;8.18;;;;;;;5.21;51.48;102882.00;4922699;29;20043;-84
2023/12/18 10:17:22;;;;;;;12.40;8.32;;;;;;;5.23;51.76;102885.56;4919165;29;20040;-85
2023/12/18 10:19:55;;;;;;;13.32;8.35;;;;;;;5.28;51.58;102888.13;4922394;29;20050;-84
2023/12/18 10:22:27;;;;;;;;;;;;;;;5.01;52.12;102881.75;4938841;29;20063;-86
2023/12/18 10:24:59;;;;;;;10.63;7.25;;;;;;;5.18;51.89;102878.50;4933127;29;19930;-85
2023/12/18 10:27:36;;;;;;;11.20;7.72;;;;;;;5.22;51.60;102882.88;4935763;29;20040;-85
2023/12/18 10:30:09;;;;;;;12.07;7.55;;;;;;;5.22;51.55;102886.50;4922755;29;20052;-85
2023/12/18 10:32:39;;;;;;;11.45;6.82;;;;;;;5.25;51.87;102888.22;4925125;29;20048;-84
2023/12/18 10:35:09;;;;;;;9.88;6.75;;;;;;;5.25;51.57;102883.69;4910815;29;20115;-85
2023/12/18 10:37:44;;;;;;;11.77;7.10;;;;;;;5.26;51.63;102874.59;4915819;29;20051;-85
2023/12/18 10:40:14;;;;;;;11.95;7.40;;;;;;;5.26;51.74;102880.03;4919079;29;20058;-86
2023/12/18 10:42:46;;;;;;;10.30;6.43;;;;;;;5.28;51.79;102877.28;4920636;29;20051;-85
2023/12/18 10:45:16;;;;;;;9.70;6.63;;;;;;;5.25;51.90;102878.25;4933484;29;20130;-84
2023/12/18 10:47:47;;;;;;;9.52;6.30;;;;;;;5.28;51.99;102870.03;4931372;29;20048;-87
2023/12/18 10:50:17;;;;;;;11.60;5.85;;;;;;;5.28;51.89;102863.69;4929006;29;20047;-86
2023/12/18 10:52:48;;;;;;;9.40;6.38;;;;;;;5.28;51.92;102859.16;4920689;29;20429;-85
2023/12/18 10:55:17;;;;;;;10.75;6.38;;;;;;;5.30;52.01;102864.50;4916094;29;20040;-86
2023/12/18 10:57:47;;;;;;;10.23;6.32;;;;;;;5.30;51.90;102867.22;4930704;29;20040;-84
2023/12/18 11:00:17;;;;;;;8.90;5.55;;;;;;;5.29;51.81;102862.75;4925491;29;20044;-84
2023/12/18 11:02:47;;;;;;;8.35;5.05;;;;;;;5.30;52.05;102868.13;4921401;29;20740;-84
2023/12/18 11:05:15;;;;;;;9.75;5.07;;;;;;;5.30;52.12;102864.50;4913452;29;20063;-85
2023/12/18 11:07:44;;;;;;;8.07;5.43;;;;;;;5.34;51.94;102865.31;4915702;29;20048;-87
2023/12/18 11:10:14;;;;;;;8.02;4.82;;;;;;;5.35;52.02;102853.50;4912320;29;20048;-84
2023/12/18 11:12:43;;;;;;;9.23;5.03;;;;;;;5.35;52.13;102854.41;4915169;29;20048;-84
2023/12/18 11:15:29;;;;;;;8.27;5.03;;;;;;;5.37;52.05;102848.94;4919820;29;20051;-84
2023/12/18 11:18:08;;;;;;;8.88;5.18;;;;;;;5.37;52.17;102849.81;4910494;29;20633;-86
2023/12/18 11:20:37;;;;;;;9.05;5.10;;;;;;;5.36;52.05;102850.75;4909120;29;20048;-84
2023/12/18 11:23:06;;;;;;;8.93;5.43;;;;;;;5.34;52.31;102835.44;4918251;29;20526;-84
2023/12/18 11:25:38;;;;;;;8.70;5.68;;;;;;;5.36;52.26;102834.47;4919835;29;20036;-85
2023/12/18 11:28:07;;;;;;;8.43;5.20;;;;;;;5.34;52.06;102833.63;4930596;29;20131;-85
2023/12/18 11:30:37;;;;;;;9.32;5.25;;;;;;;5.37;52.18;102828.09;4910716;29;20296;-85
2023/12/18 11:33:07;;;;;;;7.78;4.90;;;;;;;5.37;52.21;102828.09;4916964;29;20054;-87
2023/12/18 11:35:37;;;;;;;7.78;4.93;;;;;;;5.39;52.25;102828.91;4923780;28;20052;-86
2023/12/18 11:38:10;;;;;;;8.05;4.57;;;;;;;5.39;52.38;102819.88;4913886;29;20081;-86
2023/12/18 11:40:42;;;;;;;9.75;4.82;;;;;;;5.39;52.61;102826.19;4916824;29;20114;-87
2023/12/18 11:43:12;;;;;;;8.80;4.83;;;;;;;5.38;52.71;102818.13;4918228;29;20520;-86